sensor_id;sensor_type;location;lat;lon;timestamp;temperature;humidity
69990;DHT22;57331;52.054;5.294;2023-08-31T00:04:00;12.30;82.40
69990;DHT22;57331;52.054;5.294;2023-08-31T00:08:54;13.20;76.50
69990;DHT22;57331;52.054;5.294;2023-08-31T00:11:22;11.40;85.30
69990;DHT22;57331;52.054;5.294;2023-08-31T00:21:11;12.00;86.40
69990;DHT22;57331;52.054;5.294;2023-08-31T00:40:55;12.00;88.50
69990;DHT22;57331;52.054;5.294;2023-08-31T00:45:53;11.30;77.40
69990;DHT22;57331;52.054;5.294;2023-08-31T00:48:23;12.60;89.00
69990;DHT22;57331;52.054;5.294;2023-08-31T00:55:47;12.60;72.90
69990;DHT22;57331;52.054;5.294;2023-08-31T00:58:14;14.00;90.00
69990;DHT22;57331;52.054;5.294;2023-08-31T01:06:56;14.00;73.70
69990;DHT22;57331;52.054;5.294;2023-08-31T01:09:45;12.80;72.50
69990;DHT22;57331;52.054;5.294;2023-08-31T01:12:20;12.90;74.20
69990;DHT22;57331;52.054;5.294;2023-08-31T01:14:54;12.90;74.40
69990;DHT22;57331;52.054;5.294;2023-08-31T01:17:24;12.90;74.60
69990;DHT22;57331;52.054;5.294;2023-08-31T01:19:55;13.00;74.40
69990;DHT22;57331;52.054;5.294;2023-08-31T01:22:39;11.80;77.00
69990;DHT22;57331;52.054;5.294;2023-08-31T01:25:08;12.90;73.90
69990;DHT22;57331;52.054;5.294;2023-08-31T01:27:37;13.00;74.40
69990;DHT22;57331;52.054;5.294;2023-08-31T01:32:33;14.30;77.60
69990;DHT22;57331;52.054;5.294;2023-08-31T01:35:02;14.30;79.30
69990;DHT22;57331;52.054;5.294;2023-08-31T01:37:51;11.60;89.80
69990;DHT22;57331;52.054;5.294;2023-08-31T01:40:27;12.90;74.00
69990;DHT22;57331;52.054;5.294;2023-08-31T01:43:01;12.90;76.00
69990;DHT22;57331;52.054;5.294;2023-08-31T01:50:24;14.40;91.20
69990;DHT22;57331;52.054;5.294;2023-08-31T01:52:51;14.30;91.30
69990;DHT22;57331;52.054;5.294;2023-08-31T01:55:20;14.30;89.60
69990;DHT22;57331;52.054;5.294;2023-08-31T02:00:19;13.00;76.70
69990;DHT22;57331;52.054;5.294;2023-08-31T02:05:14;12.90;90.80
69990;DHT22;57331;52.054;5.294;2023-08-31T02:10:09;14.20;91.20
69990;DHT22;57331;52.054;5.294;2023-08-31T02:15:05;13.10;75.90
69990;DHT22;57331;52.054;5.294;2023-08-31T02:17:34;11.90;90.60
69990;DHT22;57331;52.054;5.294;2023-08-31T02:22:36;13.30;75.20
69990;DHT22;57331;52.054;5.294;2023-08-31T02:25:05;13.80;90.90
69990;DHT22;57331;52.054;5.294;2023-08-31T02:32:27;12.70;84.50
69990;DHT22;57331;52.054;5.294;2023-08-31T02:37:22;14.30;90.50
69990;DHT22;57331;52.054;5.294;2023-08-31T02:42:17;14.40;90.50
69990;DHT22;57331;52.054;5.294;2023-08-31T02:44:45;12.50;90.00
69990;DHT22;57331;52.054;5.294;2023-08-31T02:47:12;13.90;90.30
69990;DHT22;57331;52.054;5.294;2023-08-31T03:14:14;14.60;90.40
69990;DHT22;57331;52.054;5.294;2023-08-31T03:19:09;12.80;90.00
69990;DHT22;57331;52.054;5.294;2023-08-31T03:24:03;13.50;73.70
69990;DHT22;57331;52.054;5.294;2023-08-31T03:31:25;14.40;90.40
69990;DHT22;57331;52.054;5.294;2023-08-31T03:41:14;14.50;90.40
69990;DHT22;57331;52.054;5.294;2023-08-31T03:46:10;14.80;90.50
69990;DHT22;57331;52.054;5.294;2023-08-31T03:56:01;12.30;90.20
69990;DHT22;57331;52.054;5.294;2023-08-31T03:58:30;12.60;90.00
69990;DHT22;57331;52.054;5.294;2023-08-31T04:00:57;12.60;77.50
69990;DHT22;57331;52.054;5.294;2023-08-31T04:05:56;13.60;74.30
69990;DHT22;57331;52.054;5.294;2023-08-31T04:08:23;12.30;90.20
69990;DHT22;57331;52.054;5.294;2023-08-31T04:15:46;14.50;91.00
69990;DHT22;57331;52.054;5.294;2023-08-31T04:20:49;12.60;84.60
69990;DHT22;57331;52.054;5.294;2023-08-31T04:23:18;13.80;76.50
69990;DHT22;57331;52.054;5.294;2023-08-31T04:25:46;13.30;90.70
69990;DHT22;57331;52.054;5.294;2023-08-31T04:30:41;13.60;83.80
69990;DHT22;57331;52.054;5.294;2023-08-31T04:40:31;12.60;90.70
69990;DHT22;57331;52.054;5.294;2023-08-31T04:42:58;14.40;91.00
69990;DHT22;57331;52.054;5.294;2023-08-31T04:50:20;15.10;91.30
69990;DHT22;57331;52.054;5.294;2023-08-31T05:05:04;13.90;76.90
69990;DHT22;57331;52.054;5.294;2023-08-31T05:07:32;15.00;91.60
69990;DHT22;57331;52.054;5.294;2023-08-31T05:12:26;12.70;91.50
69990;DHT22;57331;52.054;5.294;2023-08-31T05:14:53;12.90;91.20
69990;DHT22;57331;52.054;5.294;2023-08-31T05:17:21;13.90;77.70
69990;DHT22;57331;52.054;5.294;2023-08-31T05:19:48;15.10;81.80
69990;DHT22;57331;52.054;5.294;2023-08-31T05:24:44;13.10;91.20
69990;DHT22;57331;52.054;5.294;2023-08-31T05:32:06;15.30;91.80
69990;DHT22;57331;52.054;5.294;2023-08-31T05:37:04;14.40;91.50
69990;DHT22;57331;52.054;5.294;2023-08-31T05:41:59;13.60;91.20
69990;DHT22;57331;52.054;5.294;2023-08-31T05:44:28;14.80;90.80
69990;DHT22;57331;52.054;5.294;2023-08-31T05:49:22;14.90;91.60
69990;DHT22;57331;52.054;5.294;2023-08-31T05:51:49;14.90;91.60
69990;DHT22;57331;52.054;5.294;2023-08-31T05:54:17;14.90;91.60
69990;DHT22;57331;52.054;5.294;2023-08-31T05:59:12;14.50;91.10
69990;DHT22;57331;52.054;5.294;2023-08-31T06:11:28;14.00;91.20
69990;DHT22;57331;52.054;5.294;2023-08-31T06:21:18;13.70;91.30
69990;DHT22;57331;52.054;5.294;2023-08-31T06:23:45;15.50;91.80
69990;DHT22;57331;52.054;5.294;2023-08-31T06:26:12;15.40;91.70
69990;DHT22;57331;52.054;5.294;2023-08-31T06:31:06;14.80;91.50
69990;DHT22;57331;52.054;5.294;2023-08-31T06:36:00;15.30;91.60
69990;DHT22;57331;52.054;5.294;2023-08-31T06:40:55;15.60;91.60
69990;DHT22;57331;52.054;5.294;2023-08-31T06:45:53;13.30;91.00
69990;DHT22;57331;52.054;5.294;2023-08-31T06:55:42;13.50;90.80
69990;DHT22;57331;52.054;5.294;2023-08-31T06:58:10;13.70;91.00
69990;DHT22;57331;52.054;5.294;2023-08-31T07:00:37;16.00;91.30
69990;DHT22;57331;52.054;5.294;2023-08-31T07:03:04;15.20;83.10
69990;DHT22;57331;52.054;5.294;2023-08-31T07:05:34;14.80;77.10
69990;DHT22;57331;52.054;5.294;2023-08-31T07:10:32;16.10;85.90
69990;DHT22;57331;52.054;5.294;2023-08-31T07:40:04;18.70;78.60
69990;DHT22;57331;52.054;5.294;2023-08-31T07:45:04;15.80;75.80
69990;DHT22;57331;52.054;5.294;2023-08-31T07:50:02;17.20;90.70
69990;DHT22;57331;52.054;5.294;2023-08-31T08:02:18;14.80;80.60
69990;DHT22;57331;52.054;5.294;2023-08-31T08:04:46;14.80;85.30
69990;DHT22;57331;52.054;5.294;2023-08-31T08:07:13;14.60;89.20
69990;DHT22;57331;52.054;5.294;2023-08-31T08:12:07;17.10;90.40
69990;DHT22;57331;52.054;5.294;2023-08-31T08:17:02;17.50;90.60
69990;DHT22;57331;52.054;5.294;2023-08-31T08:24:24;15.70;88.00
69990;DHT22;57331;52.054;5.294;2023-08-31T08:26:51;15.70;87.90
69990;DHT22;57331;52.054;5.294;2023-08-31T08:36:40;18.90;87.30
69990;DHT22;57331;52.054;5.294;2023-08-31T08:41:35;17.80;69.90
69990;DHT22;57331;52.054;5.294;2023-08-31T08:44:03;19.20;85.80
69990;DHT22;57331;52.054;5.294;2023-08-31T08:46:32;18.10;70.10
69990;DHT22;57331;52.054;5.294;2023-08-31T08:49:03;18.20;70.20
69990;DHT22;57331;52.054;5.294;2023-08-31T08:51:32;17.70;83.50
69990;DHT22;57331;52.054;5.294;2023-08-31T08:53:59;17.30;83.00
69990;DHT22;57331;52.054;5.294;2023-08-31T08:56:27;18.10;83.60
69990;DHT22;57331;52.054;5.294;2023-08-31T09:01:23;18.80;66.60
69990;DHT22;57331;52.054;5.294;2023-08-31T09:03:51;18.70;64.90
69990;DHT22;57331;52.054;5.294;2023-08-31T09:06:19;18.70;63.00
69990;DHT22;57331;52.054;5.294;2023-08-31T09:08:56;18.30;63.00
69990;DHT22;57331;52.054;5.294;2023-08-31T09:11:24;19.30;73.00
69990;DHT22;57331;52.054;5.294;2023-08-31T09:13:52;17.90;60.90
69990;DHT22;57331;52.054;5.294;2023-08-31T09:16:26;18.30;60.60
69990;DHT22;57331;52.054;5.294;2023-08-31T09:21:22;18.00;74.80
69990;DHT22;57331;52.054;5.294;2023-08-31T09:23:57;19.20;59.00
69990;DHT22;57331;52.054;5.294;2023-08-31T09:28:54;20.00;72.70
69990;DHT22;57331;52.054;5.294;2023-08-31T09:31:29;20.80;69.50
69990;DHT22;57331;52.054;5.294;2023-08-31T09:36:26;21.20;67.60
69990;DHT22;57331;52.054;5.294;2023-08-31T09:38:58;20.60;61.10
69990;DHT22;57331;52.054;5.294;2023-08-31T09:41:25;20.40;60.70
69990;DHT22;57331;52.054;5.294;2023-08-31T09:46:21;19.30;62.60
69990;DHT22;57331;52.054;5.294;2023-08-31T09:48:49;20.20;61.60
69990;DHT22;57331;52.054;5.294;2023-08-31T09:51:17;19.90;49.80
69990;DHT22;57331;52.054;5.294;2023-08-31T09:56:20;20.30;46.30
69990;DHT22;57331;52.054;5.294;2023-08-31T09:58:49;20.90;56.60
69990;DHT22;57331;52.054;5.294;2023-08-31T10:01:17;21.10;42.20
69990;DHT22;57331;52.054;5.294;2023-08-31T10:03:56;20.80;42.00
69990;DHT22;57331;52.054;5.294;2023-08-31T10:06:23;22.50;56.00
69990;DHT22;57331;52.054;5.294;2023-08-31T10:08:51;20.50;54.40
69990;DHT22;57331;52.054;5.294;2023-08-31T10:11:18;21.40;39.60
69990;DHT22;57331;52.054;5.294;2023-08-31T10:13:47;20.40;51.70
69990;DHT22;57331;52.054;5.294;2023-08-31T10:16:15;23.00;50.90
69990;DHT22;57331;52.054;5.294;2023-08-31T10:21:12;21.70;36.00
69990;DHT22;57331;52.054;5.294;2023-08-31T10:23:46;20.90;49.30
69990;DHT22;57331;52.054;5.294;2023-08-31T10:26:27;21.50;46.10
69990;DHT22;57331;52.054;5.294;2023-08-31T10:33:56;22.40;43.90
69990;DHT22;57331;52.054;5.294;2023-08-31T10:36:41;21.90;36.80
69990;DHT22;57331;52.054;5.294;2023-08-31T10:39:13;23.20;45.70
69990;DHT22;57331;52.054;5.294;2023-08-31T10:41:40;24.20;43.00
69990;DHT22;57331;52.054;5.294;2023-08-31T10:46:48;23.00;41.40
69990;DHT22;57331;52.054;5.294;2023-08-31T10:49:18;23.40;40.50
69990;DHT22;57331;52.054;5.294;2023-08-31T10:51:57;21.50;38.80
69990;DHT22;57331;52.054;5.294;2023-08-31T10:56:52;23.90;41.10
69990;DHT22;57331;52.054;5.294;2023-08-31T10:59:23;23.90;36.10
69990;DHT22;57331;52.054;5.294;2023-08-31T11:01:57;22.40;38.80
69990;DHT22;57331;52.054;5.294;2023-08-31T11:04:28;21.80;35.60
69990;DHT22;57331;52.054;5.294;2023-08-31T11:07:18;24.50;38.30
69990;DHT22;57331;52.054;5.294;2023-08-31T11:09:46;24.10;35.40
69990;DHT22;57331;52.054;5.294;2023-08-31T11:12:13;23.30;23.30
69990;DHT22;57331;52.054;5.294;2023-08-31T11:14:41;23.40;24.70
69990;DHT22;57331;52.054;5.294;2023-08-31T11:17:09;22.40;34.60
69990;DHT22;57331;52.054;5.294;2023-08-31T11:19:37;23.00;37.80
69990;DHT22;57331;52.054;5.294;2023-08-31T11:22:05;24.10;24.30
69990;DHT22;57331;52.054;5.294;2023-08-31T11:24:33;24.50;34.10
69990;DHT22;57331;52.054;5.294;2023-08-31T11:27:00;25.00;34.00
69990;DHT22;57331;52.054;5.294;2023-08-31T11:29:30;24.30;32.70
69990;DHT22;57331;52.054;5.294;2023-08-31T11:31:57;24.90;35.60
69990;DHT22;57331;52.054;5.294;2023-08-31T11:34:27;24.20;32.50
69990;DHT22;57331;52.054;5.294;2023-08-31T11:36:54;24.30;19.70
69990;DHT22;57331;52.054;5.294;2023-08-31T11:39:22;24.90;30.10
69990;DHT22;57331;52.054;5.294;2023-08-31T11:41:51;24.10;31.10
69990;DHT22;57331;52.054;5.294;2023-08-31T11:44:18;24.20;19.60
69990;DHT22;57331;52.054;5.294;2023-08-31T11:46:46;24.70;33.70
69990;DHT22;57331;52.054;5.294;2023-08-31T11:49:20;22.80;31.90
69990;DHT22;57331;52.054;5.294;2023-08-31T11:51:49;24.30;22.20
69990;DHT22;57331;52.054;5.294;2023-08-31T11:54:19;24.70;21.50
69990;DHT22;57331;52.054;5.294;2023-08-31T11:56:47;25.00;20.20
69990;DHT22;57331;52.054;5.294;2023-08-31T11:59:18;24.10;30.60
69990;DHT22;57331;52.054;5.294;2023-08-31T12:01:47;25.20;20.50
69990;DHT22;57331;52.054;5.294;2023-08-31T12:04:16;25.30;19.60
69990;DHT22;57331;52.054;5.294;2023-08-31T12:06:47;26.00;30.40
69990;DHT22;57331;52.054;5.294;2023-08-31T12:09:17;25.20;19.20
69990;DHT22;57331;52.054;5.294;2023-08-31T12:11:53;25.30;19.50
69990;DHT22;57331;52.054;5.294;2023-08-31T12:14:22;25.00;18.80
69990;DHT22;57331;52.054;5.294;2023-08-31T12:16:51;25.10;19.50
69990;DHT22;57331;52.054;5.294;2023-08-31T12:19:18;25.30;18.90
69990;DHT22;57331;52.054;5.294;2023-08-31T12:21:46;25.10;17.50
69990;DHT22;57331;52.054;5.294;2023-08-31T12:24:13;25.20;18.10
69990;DHT22;57331;52.054;5.294;2023-08-31T12:26:41;25.20;17.80
69990;DHT22;57331;52.054;5.294;2023-08-31T12:29:08;25.30;17.40
69990;DHT22;57331;52.054;5.294;2023-08-31T12:31:36;25.40;18.50
69990;DHT22;57331;52.054;5.294;2023-08-31T12:34:03;25.60;18.40
69990;DHT22;57331;52.054;5.294;2023-08-31T12:36:33;25.80;18.30
69990;DHT22;57331;52.054;5.294;2023-08-31T12:39:00;26.00;18.70
69990;DHT22;57331;52.054;5.294;2023-08-31T12:41:28;25.70;17.00
69990;DHT22;57331;52.054;5.294;2023-08-31T12:43:56;25.90;18.30
69990;DHT22;57331;52.054;5.294;2023-08-31T12:46:23;26.10;17.00
69990;DHT22;57331;52.054;5.294;2023-08-31T12:48:51;25.80;17.60
69990;DHT22;57331;52.054;5.294;2023-08-31T12:51:19;28.90;20.00
69990;DHT22;57331;52.054;5.294;2023-08-31T12:53:46;26.30;17.30
69990;DHT22;57331;52.054;5.294;2023-08-31T12:56:15;26.30;16.20
69990;DHT22;57331;52.054;5.294;2023-08-31T12:58:52;26.10;17.50
69990;DHT22;57331;52.054;5.294;2023-08-31T13:01:20;25.90;18.00
69990;DHT22;57331;52.054;5.294;2023-08-31T13:03:48;25.50;17.60
69990;DHT22;57331;52.054;5.294;2023-08-31T13:06:15;25.30;17.00
69990;DHT22;57331;52.054;5.294;2023-08-31T13:08:45;25.10;18.00
69990;DHT22;57331;52.054;5.294;2023-08-31T13:11:12;25.30;18.90
69990;DHT22;57331;52.054;5.294;2023-08-31T13:13:40;25.50;18.70
69990;DHT22;57331;52.054;5.294;2023-08-31T13:16:07;25.90;19.20
69990;DHT22;57331;52.054;5.294;2023-08-31T13:18:34;26.50;18.60
69990;DHT22;57331;52.054;5.294;2023-08-31T13:21:01;26.60;17.30
69990;DHT22;57331;52.054;5.294;2023-08-31T13:23:29;26.60;17.20
69990;DHT22;57331;52.054;5.294;2023-08-31T13:25:56;26.40;17.40
69990;DHT22;57331;52.054;5.294;2023-08-31T13:28:23;26.70;18.30
69990;DHT22;57331;52.054;5.294;2023-08-31T13:30:55;26.70;17.10
69990;DHT22;57331;52.054;5.294;2023-08-31T13:33:24;26.60;18.80
69990;DHT22;57331;52.054;5.294;2023-08-31T13:35:51;27.80;23.60
69990;DHT22;57331;52.054;5.294;2023-08-31T13:38:18;27.30;15.80
69990;DHT22;57331;52.054;5.294;2023-08-31T13:40:45;25.80;20.80
69990;DHT22;57331;52.054;5.294;2023-08-31T13:43:12;26.20;21.50
69990;DHT22;57331;52.054;5.294;2023-08-31T13:45:39;27.50;22.40
69990;DHT22;57331;52.054;5.294;2023-08-31T13:48:06;26.10;21.20
69990;DHT22;57331;52.054;5.294;2023-08-31T13:50:33;28.10;23.50
69990;DHT22;57331;52.054;5.294;2023-08-31T13:57:55;27.70;24.10
69990;DHT22;57331;52.054;5.294;2023-08-31T14:00:22;26.90;23.60
69990;DHT22;57331;52.054;5.294;2023-08-31T14:05:16;28.90;22.00
69990;DHT22;57331;52.054;5.294;2023-08-31T14:07:43;29.00;22.40
69990;DHT22;57331;52.054;5.294;2023-08-31T14:10:10;27.50;21.10
69990;DHT22;57331;52.054;5.294;2023-08-31T14:12:37;28.00;13.90
69990;DHT22;57331;52.054;5.294;2023-08-31T14:15:05;28.30;21.90
69990;DHT22;57331;52.054;5.294;2023-08-31T14:17:33;29.60;20.60
69990;DHT22;57331;52.054;5.294;2023-08-31T14:20:00;28.60;13.90
69990;DHT22;57331;52.054;5.294;2023-08-31T14:22:32;27.90;21.10
69990;DHT22;57331;52.054;5.294;2023-08-31T14:25:00;28.90;19.80
69990;DHT22;57331;52.054;5.294;2023-08-31T14:27:27;27.80;19.80
69990;DHT22;57331;52.054;5.294;2023-08-31T14:29:57;28.40;13.00
69990;DHT22;57331;52.054;5.294;2023-08-31T14:32:24;29.10;20.30
69990;DHT22;57331;52.054;5.294;2023-08-31T14:34:54;28.80;20.50
69990;DHT22;57331;52.054;5.294;2023-08-31T14:37:21;29.10;20.70
69990;DHT22;57331;52.054;5.294;2023-08-31T14:39:48;28.80;19.60
69990;DHT22;57331;52.054;5.294;2023-08-31T14:42:15;26.60;19.40
69990;DHT22;57331;52.054;5.294;2023-08-31T14:44:44;27.50;12.80
69990;DHT22;57331;52.054;5.294;2023-08-31T14:47:11;29.30;21.00
69990;DHT22;57331;52.054;5.294;2023-08-31T14:49:39;29.30;21.60
69990;DHT22;57331;52.054;5.294;2023-08-31T14:52:07;28.80;20.60
69990;DHT22;57331;52.054;5.294;2023-08-31T14:54:34;28.10;17.40
69990;DHT22;57331;52.054;5.294;2023-08-31T14:57:01;28.60;18.70
69990;DHT22;57331;52.054;5.294;2023-08-31T14:59:30;30.10;20.70
69990;DHT22;57331;52.054;5.294;2023-08-31T15:01:57;28.30;20.30
69990;DHT22;57331;52.054;5.294;2023-08-31T15:04:24;29.30;13.10
69990;DHT22;57331;52.054;5.294;2023-08-31T15:06:53;29.70;12.00
69990;DHT22;57331;52.054;5.294;2023-08-31T15:09:20;29.40;17.70
69990;DHT22;57331;52.054;5.294;2023-08-31T15:11:47;29.10;19.00
69990;DHT22;57331;52.054;5.294;2023-08-31T15:14:14;29.00;11.30
69990;DHT22;57331;52.054;5.294;2023-08-31T15:16:41;29.10;11.70
69990;DHT22;57331;52.054;5.294;2023-08-31T15:19:08;29.20;11.30
69990;DHT22;57331;52.054;5.294;2023-08-31T15:21:35;28.00;18.80
69990;DHT22;57331;52.054;5.294;2023-08-31T15:24:02;29.10;11.90
69990;DHT22;57331;52.054;5.294;2023-08-31T15:26:29;30.00;18.80
69990;DHT22;57331;52.054;5.294;2023-08-31T15:28:56;29.80;17.70
69990;DHT22;57331;52.054;5.294;2023-08-31T15:31:23;28.90;10.50
69990;DHT22;57331;52.054;5.294;2023-08-31T15:36:18;27.30;18.70
69990;DHT22;57331;52.054;5.294;2023-08-31T15:38:45;28.10;18.30
69990;DHT22;57331;52.054;5.294;2023-08-31T15:41:13;29.00;11.70
69990;DHT22;57331;52.054;5.294;2023-08-31T15:43:41;29.80;16.60
69990;DHT22;57331;52.054;5.294;2023-08-31T15:46:09;30.50;18.90
69990;DHT22;57331;52.054;5.294;2023-08-31T15:55:59;31.30;17.80
69990;DHT22;57331;52.054;5.294;2023-08-31T15:58:26;31.40;17.50
69990;DHT22;57331;52.054;5.294;2023-08-31T16:00:54;30.30;17.10
69990;DHT22;57331;52.054;5.294;2023-08-31T16:03:32;31.10;17.10
69990;DHT22;57331;52.054;5.294;2023-08-31T16:08:28;29.80;16.50
69990;DHT22;57331;52.054;5.294;2023-08-31T16:10:56;32.10;17.90
69990;DHT22;57331;52.054;5.294;2023-08-31T16:13:23;30.40;15.90
69990;DHT22;57331;52.054;5.294;2023-08-31T16:15:50;32.00;16.30
69990;DHT22;57331;52.054;5.294;2023-08-31T16:18:18;31.80;16.60
69990;DHT22;57331;52.054;5.294;2023-08-31T16:20:45;30.40;15.40
69990;DHT22;57331;52.054;5.294;2023-08-31T16:23:12;30.90;15.80
69990;DHT22;57331;52.054;5.294;2023-08-31T16:25:39;30.90;15.70
69990;DHT22;57331;52.054;5.294;2023-08-31T16:28:06;31.90;15.80
69990;DHT22;57331;52.054;5.294;2023-08-31T16:30:34;32.50;15.80
69990;DHT22;57331;52.054;5.294;2023-08-31T16:33:01;32.60;16.10
69990;DHT22;57331;52.054;5.294;2023-08-31T16:35:28;31.20;14.70
69990;DHT22;57331;52.054;5.294;2023-08-31T16:37:55;31.40;14.60
69990;DHT22;57331;52.054;5.294;2023-08-31T16:40:22;31.50;8.60
69990;DHT22;57331;52.054;5.294;2023-08-31T16:42:49;31.50;8.50
69990;DHT22;57331;52.054;5.294;2023-08-31T16:45:16;32.30;15.10
69990;DHT22;57331;52.054;5.294;2023-08-31T16:47:43;32.60;16.40
69990;DHT22;57331;52.054;5.294;2023-08-31T16:50:10;31.60;8.70
69990;DHT22;57331;52.054;5.294;2023-08-31T16:52:38;32.80;14.50
69990;DHT22;57331;52.054;5.294;2023-08-31T16:55:05;32.00;8.00
69990;DHT22;57331;52.054;5.294;2023-08-31T16:57:32;32.00;7.70
69990;DHT22;57331;52.054;5.294;2023-08-31T16:59:59;30.70;13.90
69990;DHT22;57331;52.054;5.294;2023-08-31T17:02:26;31.90;8.20
69990;DHT22;57331;52.054;5.294;2023-08-31T17:04:55;31.10;13.40
69990;DHT22;57331;52.054;5.294;2023-08-31T17:07:22;30.90;14.30
69990;DHT22;57331;52.054;5.294;2023-08-31T17:09:48;30.50;8.00
69990;DHT22;57331;52.054;5.294;2023-08-31T17:12:15;29.20;14.50
69990;DHT22;57331;52.054;5.294;2023-08-31T17:14:43;31.20;15.50
69990;DHT22;57331;52.054;5.294;2023-08-31T17:17:12;30.80;15.30
69990;DHT22;57331;52.054;5.294;2023-08-31T17:19:39;31.30;15.50
69990;DHT22;57331;52.054;5.294;2023-08-31T17:22:06;30.50;8.70
69990;DHT22;57331;52.054;5.294;2023-08-31T17:24:33;29.70;14.40
69990;DHT22;57331;52.054;5.294;2023-08-31T17:27:00;31.80;15.20
69990;DHT22;57331;52.054;5.294;2023-08-31T17:29:27;31.00;8.40
69990;DHT22;57331;52.054;5.294;2023-08-31T17:31:54;31.10;8.30
69990;DHT22;57331;52.054;5.294;2023-08-31T17:34:21;31.30;15.30
69990;DHT22;57331;52.054;5.294;2023-08-31T17:36:49;31.20;15.70
69990;DHT22;57331;52.054;5.294;2023-08-31T17:39:16;31.00;9.10
69990;DHT22;57331;52.054;5.294;2023-08-31T17:41:43;30.70;9.20
69990;DHT22;57331;52.054;5.294;2023-08-31T17:44:11;31.30;16.20
69990;DHT22;57331;52.054;5.294;2023-08-31T17:46:40;31.10;16.80
69990;DHT22;57331;52.054;5.294;2023-08-31T17:49:07;29.80;10.20
69990;DHT22;57331;52.054;5.294;2023-08-31T17:51:34;26.90;16.70
69990;DHT22;57331;52.054;5.294;2023-08-31T17:54:01;28.00;19.70
69990;DHT22;57331;52.054;5.294;2023-08-31T17:58:58;27.10;23.00
69990;DHT22;57331;52.054;5.294;2023-08-31T18:03:53;23.40;24.30
69990;DHT22;57331;52.054;5.294;2023-08-31T18:06:20;24.60;21.00
69990;DHT22;57331;52.054;5.294;2023-08-31T18:08:47;23.70;23.10
69990;DHT22;57331;52.054;5.294;2023-08-31T18:16:10;22.40;30.50
69990;DHT22;57331;52.054;5.294;2023-08-31T18:21:06;21.30;32.40
69990;DHT22;57331;52.054;5.294;2023-08-31T18:26:01;22.10;25.70
69990;DHT22;57331;52.054;5.294;2023-08-31T18:28:29;23.10;37.00
69990;DHT22;57331;52.054;5.294;2023-08-31T18:31:15;21.10;37.30
69990;DHT22;57331;52.054;5.294;2023-08-31T18:33:43;22.50;39.30
69990;DHT22;57331;52.054;5.294;2023-08-31T18:38:37;20.00;40.00
69990;DHT22;57331;52.054;5.294;2023-08-31T18:41:05;20.40;41.10
69990;DHT22;57331;52.054;5.294;2023-08-31T18:50:58;21.10;43.90
69990;DHT22;57331;52.054;5.294;2023-08-31T18:53:26;20.30;32.60
69990;DHT22;57331;52.054;5.294;2023-08-31T18:56:01;20.20;33.10
69990;DHT22;57331;52.054;5.294;2023-08-31T18:58:30;20.20;45.70
69990;DHT22;57331;52.054;5.294;2023-08-31T19:00:58;18.80;45.70
69990;DHT22;57331;52.054;5.294;2023-08-31T19:03:28;19.50;46.50
69990;DHT22;57331;52.054;5.294;2023-08-31T19:05:58;18.70;42.00
69990;DHT22;57331;52.054;5.294;2023-08-31T19:10:52;19.00;47.70
69990;DHT22;57331;52.054;5.294;2023-08-31T19:15:46;20.40;45.40
69990;DHT22;57331;52.054;5.294;2023-08-31T19:20:42;20.80;50.10
69990;DHT22;57331;52.054;5.294;2023-08-31T19:23:09;19.00;49.60
69990;DHT22;57331;52.054;5.294;2023-08-31T19:28:05;19.20;37.80
69990;DHT22;57331;52.054;5.294;2023-08-31T19:30:33;19.20;38.30
69990;DHT22;57331;52.054;5.294;2023-08-31T19:33:01;19.90;42.90
69990;DHT22;57331;52.054;5.294;2023-08-31T19:35:28;18.30;51.00
69990;DHT22;57331;52.054;5.294;2023-08-31T19:37:58;20.10;48.40
69990;DHT22;57331;52.054;5.294;2023-08-31T19:45:20;19.40;51.90
69990;DHT22;57331;52.054;5.294;2023-08-31T19:47:47;19.70;42.60
69990;DHT22;57331;52.054;5.294;2023-08-31T19:52:42;19.50;52.50
69990;DHT22;57331;52.054;5.294;2023-08-31T19:57:40;19.00;40.50
69990;DHT22;57331;52.054;5.294;2023-08-31T20:00:08;17.70;52.60
69990;DHT22;57331;52.054;5.294;2023-08-31T20:05:10;18.50;52.70
69990;DHT22;57331;52.054;5.294;2023-08-31T20:07:37;18.40;45.90
69990;DHT22;57331;52.054;5.294;2023-08-31T20:10:04;19.20;52.90
69990;DHT22;57331;52.054;5.294;2023-08-31T20:17:26;19.80;53.70
69990;DHT22;57331;52.054;5.294;2023-08-31T20:19:54;20.00;54.10
69990;DHT22;57331;52.054;5.294;2023-08-31T20:22:23;20.20;54.10
69990;DHT22;57331;52.054;5.294;2023-08-31T20:24:50;19.50;53.90
69990;DHT22;57331;52.054;5.294;2023-08-31T20:27:17;20.10;54.40
69990;DHT22;57331;52.054;5.294;2023-08-31T20:34:38;19.80;55.40
69990;DHT22;57331;52.054;5.294;2023-08-31T20:37:05;19.40;53.40
69990;DHT22;57331;52.054;5.294;2023-08-31T20:42:05;19.90;49.30
69990;DHT22;57331;52.054;5.294;2023-08-31T20:54:26;18.20;55.70
69990;DHT22;57331;52.054;5.294;2023-08-31T20:56:53;17.00;55.30
69990;DHT22;57331;52.054;5.294;2023-08-31T21:06:42;17.10;56.90
69990;DHT22;57331;52.054;5.294;2023-08-31T21:09:11;19.00;58.30
69990;DHT22;57331;52.054;5.294;2023-08-31T21:14:06;17.10;49.90
69990;DHT22;57331;52.054;5.294;2023-08-31T21:19:00;19.10;59.20
69990;DHT22;57331;52.054;5.294;2023-08-31T21:21:30;18.00;48.70
69990;DHT22;57331;52.054;5.294;2023-08-31T21:26:25;19.20;59.70
69990;DHT22;57331;52.054;5.294;2023-08-31T21:28:52;18.60;59.20
69990;DHT22;57331;52.054;5.294;2023-08-31T21:33:46;16.70;58.40
69990;DHT22;57331;52.054;5.294;2023-08-31T21:41:09;17.70;60.40
69990;DHT22;57331;52.054;5.294;2023-08-31T21:48:31;17.00;59.80
69990;DHT22;57331;52.054;5.294;2023-08-31T21:53:26;19.20;60.20
69990;DHT22;57331;52.054;5.294;2023-08-31T21:55:53;16.70;59.60
69990;DHT22;57331;52.054;5.294;2023-08-31T22:00:47;17.90;60.20
69990;DHT22;57331;52.054;5.294;2023-08-31T22:08:10;17.80;46.70
69990;DHT22;57331;52.054;5.294;2023-08-31T22:10:38;17.60;60.80
69990;DHT22;57331;52.054;5.294;2023-08-31T22:13:07;17.90;47.10
69990;DHT22;57331;52.054;5.294;2023-08-31T22:18:02;17.60;50.50
69990;DHT22;57331;52.054;5.294;2023-08-31T22:22:58;17.30;61.10
69990;DHT22;57331;52.054;5.294;2023-08-31T22:25:27;17.60;47.60
69990;DHT22;57331;52.054;5.294;2023-08-31T22:27:56;16.80;61.30
69990;DHT22;57331;52.054;5.294;2023-08-31T22:30:27;16.30;61.50
69990;DHT22;57331;52.054;5.294;2023-08-31T22:32:54;17.90;62.40
69990;DHT22;57331;52.054;5.294;2023-08-31T22:35:21;17.10;62.60
69990;DHT22;57331;52.054;5.294;2023-08-31T22:37:50;18.70;63.70
69990;DHT22;57331;52.054;5.294;2023-08-31T22:42:45;18.10;63.90
69990;DHT22;57331;52.054;5.294;2023-08-31T22:45:12;16.10;63.10
69990;DHT22;57331;52.054;5.294;2023-08-31T22:47:39;16.00;63.30
69990;DHT22;57331;52.054;5.294;2023-08-31T22:50:07;15.80;63.50
69990;DHT22;57331;52.054;5.294;2023-08-31T22:57:33;15.90;57.70
69990;DHT22;57331;52.054;5.294;2023-08-31T23:00:00;17.80;66.10
69990;DHT22;57331;52.054;5.294;2023-08-31T23:14:46;18.10;66.80
69990;DHT22;57331;52.054;5.294;2023-08-31T23:17:13;16.10;65.90